Time;durP1;ratioP1;P1;durP2;ratioP2;P2;SDS_P1;SDS_P2;PMS_P1;PMS_P2;Temp;Humidity;BMP_temperature;BMP_pressure;BME280_temperature;BME280_humidity;BME280_pressure;Samples;Min_cycle;Max_cycle;Signal;HPM_P1;HPM_P2
2022/01/16 00:04:11;;;;;;;33.60;14.10;;;3.60;78.50;;;;;;4119026;28;20069;-80
2022/01/16 00:06:13;;;;;;;28.67;12.85;;;3.60;78.60;;;;;;4111875;28;20057;-80
2022/01/16 00:08:13;;;;;;;31.65;12.88;;;3.60;78.70;;;;;;4127816;28;20747;-80
2022/01/16 00:10:16;;;;;;;33.67;14.45;;;3.60;78.80;;;;;;4129760;28;20027;-80
2022/01/16 00:12:18;;;;;;;40.47;14.88;;;3.60;78.90;;;;;;4110970;28;20037;-80
2022/01/16 00:14:19;;;;;;;33.75;14.55;;;3.60;79.00;;;;;;4126182;28;20077;-80
2022/01/16 00:16:20;;;;;;;33.22;13.80;;;3.70;79.10;;;;;;4125455;28;20034;-80
2022/01/16 00:18:24;;;;;;;35.28;13.27;;;3.60;79.00;;;;;;4109292;28;20030;-79
2022/01/16 00:20:25;;;;;;;37.03;14.70;;;3.60;79.00;;;;;;4127211;28;20110;-80
2022/01/16 00:22:33;;;;;;;34.53;13.75;;;3.60;79.00;;;;;;4109605;28;20046;-80
2022/01/16 00:24:34;;;;;;;40.75;13.75;;;3.60;79.00;;;;;;4122804;28;20041;-80
2022/01/16 00:26:35;;;;;;;43.28;14.60;;;3.70;79.10;;;;;;4126728;28;20433;-80
2022/01/16 00:28:36;;;;;;;45.88;15.50;;;3.60;79.00;;;;;;4109585;28;20640;-80
2022/01/16 00:30:37;;;;;;;37.47;15.38;;;3.70;79.10;;;;;;4111994;28;20023;-80
2022/01/16 00:32:37;;;;;;;31.83;13.80;;;3.70;79.10;;;;;;4126736;28;20620;-80
2022/01/16 00:34:38;;;;;;;31.80;14.23;;;3.70;79.20;;;;;;4127337;28;20034;-81
2022/01/16 00:36:39;;;;;;;42.00;14.10;;;3.60;79.10;;;;;;4128529;28;20241;-80
2022/01/16 00:38:40;;;;;;;32.17;14.32;;;3.60;79.10;;;;;;4126364;28;20100;-81
2022/01/16 00:40:41;;;;;;;35.58;14.63;;;3.60;79.10;;;;;;4095388;28;20031;-80
2022/01/16 00:42:42;;;;;;;34.10;15.73;;;3.60;79.20;;;;;;4112388;28;20027;-81
2022/01/16 00:44:42;;;;;;;39.50;15.57;;;3.70;79.30;;;;;;4111704;28;20053;-81
2022/01/16 00:46:43;;;;;;;38.30;15.18;;;3.60;79.30;;;;;;4131158;28;20490;-81
2022/01/16 00:48:44;;;;;;;50.75;17.45;;;3.60;79.40;;;;;;4127920;28;20082;-80
2022/01/16 00:50:44;;;;;;;38.42;15.55;;;3.60;79.50;;;;;;4136880;28;20026;-81
2022/01/16 00:52:45;;;;;;;40.67;17.23;;;3.60;79.40;;;;;;4130098;28;20026;-81
2022/01/16 00:54:45;;;;;;;43.40;17.15;;;3.60;79.50;;;;;;4095904;28;20031;-80
2022/01/16 00:56:46;;;;;;;39.55;16.85;;;3.60;79.60;;;;;;4126839;28;20045;-81
2022/01/16 00:58:46;;;;;;;54.55;20.02;;;3.60;80.30;;;;;;4111953;28;20031;-81
2022/01/16 01:00:47;;;;;;;46.33;18.67;;;3.60;79.70;;;;;;4111422;28;20027;-81
2022/01/16 01:02:48;;;;;;;47.80;20.42;;;3.60;80.40;;;;;;4083104;28;20036;-81
2022/01/16 01:04:49;;;;;;;62.88;21.02;;;3.60;80.40;;;;;;4125975;28;20042;-81
2022/01/16 01:06:51;;;;;;;50.90;19.88;;;3.60;79.70;;;;;;4128365;28;20030;-81
2022/01/16 01:08:52;;;;;;;48.45;19.58;;;3.60;79.70;;;;;;4121995;28;20030;-81
2022/01/16 01:10:53;;;;;;;47.38;19.80;;;3.60;79.70;;;;;;4095496;28;20035;-81
2022/01/16 01:13:08;;;;;;;44.58;19.30;;;3.60;79.70;;;;;;4126367;28;20030;-81
2022/01/16 01:15:10;;;;;;;52.35;21.73;;;3.60;79.80;;;;;;4115278;28;20053;-82
2022/01/16 01:17:20;;;;;;;42.65;20.10;;;3.60;79.70;;;;;;4124228;28;20404;-81
2022/01/16 01:19:24;;;;;;;54.00;21.05;;;3.60;79.70;;;;;;4129824;28;20022;-81
2022/01/16 01:21:28;;;;;;;51.20;20.73;;;3.70;79.90;;;;;;4112788;28;20031;-81
2022/01/16 01:23:29;;;;;;;51.63;20.08;;;3.70;79.80;;;;;;4107365;28;20023;-81
2022/01/16 01:25:30;;;;;;;47.72;20.02;;;3.70;79.80;;;;;;4111748;28;20089;-81
2022/01/16 01:27:33;;;;;;;42.55;19.10;;;3.60;79.70;;;;;;4107705;28;20027;-81
2022/01/16 01:29:35;;;;;;;51.97;20.77;;;3.60;79.80;;;;;;4098240;28;20520;-81
2022/01/16 01:31:35;;;;;;;50.20;18.92;;;3.60;79.90;;;;;;4133058;28;20408;-82
2022/01/16 01:33:36;;;;;;;50.58;20.42;;;3.60;79.90;;;;;;4126586;28;20061;-81
2022/01/16 01:35:38;;;;;;;42.65;19.27;;;3.60;79.90;;;;;;4111603;28;20871;-81
2022/01/16 01:37:39;;;;;;;48.35;19.15;;;3.60;79.90;;;;;;4110760;28;20026;-80
2022/01/16 01:39:40;;;;;;;50.15;18.92;;;3.60;79.90;;;;;;4110970;28;20055;-81
2022/01/16 01:41:40;;;;;;;44.88;19.17;;;3.60;80.00;;;;;;4095656;28;20054;-80
2022/01/16 01:52:45;;;;;;;36.95;16.20;;;3.60;80.10;;;;;;4126821;28;20669;-80
2022/01/16 01:54:46;;;;;;;36.83;17.52;;;3.60;80.10;;;;;;4126196;28;20134;-80
2022/01/16 01:56:47;;;;;;;37.90;18.17;;;3.60;80.10;;;;;;4110010;28;20031;-80
2022/01/16 01:58:48;;;;;;;42.05;16.65;;;3.60;80.20;;;;;;4111186;28;20421;-80
2022/01/16 02:00:48;;;;;;;40.40;17.83;;;3.50;80.10;;;;;;4112360;28;20019;-81
2022/01/16 02:05:02;;;;;;;43.15;18.88;;;3.60;80.40;;;;;;4109390;28;20244;-81
2022/01/16 02:07:03;;;;;;;44.85;18.73;;;3.50;80.40;;;;;;4123888;28;20224;-80
2022/01/16 02:09:06;;;;;;;51.80;19.80;;;3.50;80.40;;;;;;4128486;28;20048;-81
2022/01/16 02:11:06;;;;;;;45.90;19.77;;;3.50;80.30;;;;;;4095233;28;20524;-81
2022/01/16 02:13:08;;;;;;;48.33;19.42;;;3.60;80.50;;;;;;4093847;28;20042;-80
2022/01/16 02:15:36;;;;;;;47.38;19.42;;;3.60;80.50;;;;;;4109953;28;20031;-81
2022/01/16 02:31:22;;;;;;;45.20;19.15;;;3.50;80.80;;;;;;4093988;28;20398;-81
2022/01/16 02:35:47;;;;;;;58.13;22.58;;;3.50;80.80;;;;;;4105293;28;20113;-81
2022/01/16 02:37:47;;;;;;;52.08;22.35;;;3.50;81.00;;;;;;4126100;28;20484;-81
2022/01/16 02:39:51;;;;;;;56.60;23.15;;;3.50;81.00;;;;;;4127728;28;20019;-81
2022/01/16 02:41:53;;;;;;;;;;;3.50;81.00;;;;;;4114179;28;20023;-81
2022/01/16 02:43:56;;;;;;;63.63;24.60;;;3.50;81.30;;;;;;4130098;28;20384;-81
2022/01/16 02:46:36;;;;;;;64.00;25.23;;;3.40;81.80;;;;;;4115045;28;20145;-81
2022/01/16 02:48:30;;;;;;;62.87;27.33;;;3.50;81.20;;;;;;4104330;28;20070;-81
2022/01/16 02:50:30;;;;;;;62.20;25.70;;;3.50;81.30;;;;;;4100960;28;20291;-81
2022/01/16 02:52:31;;;;;;;70.97;27.30;;;3.50;81.30;;;;;;4096180;28;20038;-81
2022/01/16 02:54:35;;;;;;;66.78;26.45;;;3.50;82.10;;;;;;4120939;28;20027;-81
2022/01/16 02:56:38;;;;;;;60.67;26.23;;;3.50;81.60;;;;;;4130694;28;20282;-81
2022/01/16 02:58:39;;;;;;;70.10;27.63;;;3.60;81.60;;;;;;4109062;28;20113;-81
2022/01/16 03:00:40;;;;;;;64.15;26.80;;;3.50;81.70;;;;;;4128063;28;20033;-82
2022/01/16 03:02:40;;;;;;;68.60;28.95;;;3.50;81.70;;;;;;4130140;28;20026;-81
2022/01/16 03:04:41;;;;;;;66.20;27.63;;;3.50;81.80;;;;;;4104780;28;20038;-81
2022/01/16 03:06:41;;;;;;;58.72;24.73;;;3.50;81.90;;;;;;4113701;28;20481;-81
2022/01/16 03:08:42;;;;;;;60.20;25.15;;;3.50;81.90;;;;;;4111761;28;20034;-81
2022/01/16 03:12:50;;;;;;;45.72;20.85;;;3.50;82.10;;;;;;4131718;28;20034;-80
2022/01/16 03:14:51;;;;;;;45.20;18.67;;;3.50;82.20;;;;;;4131899;28;20038;-80
2022/01/16 03:16:53;;;;;;;39.35;18.88;;;3.50;82.10;;;;;;4130197;28;20558;-80
2022/01/16 03:23:33;;;;;;;37.13;18.33;;;3.50;82.30;;;;;;4115345;28;20126;-80
2022/01/16 03:25:34;;;;;;;35.30;17.58;;;3.50;82.30;;;;;;4132263;28;20022;-81
2022/01/16 03:27:36;;;;;;;35.97;17.00;;;3.50;82.30;;;;;;4127653;28;20046;-81
2022/01/16 03:29:36;;;;;;;35.67;16.15;;;3.50;82.30;;;;;;4095355;28;20532;-81
2022/01/16 03:31:37;;;;;;;37.25;17.00;;;3.50;82.40;;;;;;4132239;28;20034;-80
2022/01/16 03:33:38;;;;;;;31.42;14.98;;;3.50;82.50;;;;;;4113806;28;20034;-81
2022/01/16 03:35:39;;;;;;;34.00;16.08;;;3.50;82.50;;;;;;4123770;28;20480;-81
2022/01/16 03:37:40;;;;;;;35.17;16.30;;;3.50;82.50;;;;;;4106398;28;20029;-81
2022/01/16 03:39:41;;;;;;;36.63;15.98;;;3.50;82.50;;;;;;4123420;28;20432;-81
2022/01/16 03:41:41;;;;;;;34.80;16.55;;;3.50;82.50;;;;;;4128688;28;20026;-80
2022/01/16 03:43:42;;;;;;;30.52;14.60;;;3.50;82.50;;;;;;4112934;28;20523;-80
2022/01/16 03:45:46;;;;;;;31.83;15.50;;;3.50;82.60;;;;;;4112510;28;20034;-81
2022/01/16 03:47:47;;;;;;;35.78;16.63;;;3.60;82.60;;;;;;4136304;28;20074;-81
2022/01/16 03:49:48;;;;;;;37.50;17.05;;;3.50;82.60;;;;;;4128470;28;20093;-81
2022/01/16 03:51:50;;;;;;;41.90;18.48;;;3.60;82.60;;;;;;4130381;28;20387;-81
2022/01/16 03:53:51;;;;;;;44.50;19.75;;;3.60;82.60;;;;;;4113104;28;20093;-81
2022/01/16 03:55:51;;;;;;;42.15;18.63;;;3.60;82.60;;;;;;4112870;28;20034;-80
2022/01/16 03:57:52;;;;;;;38.95;18.50;;;3.60;82.50;;;;;;4134218;28;20043;-81
2022/01/16 03:59:53;;;;;;;45.70;18.88;;;3.60;82.60;;;;;;4127766;28;20030;-80
2022/01/16 04:01:53;;;;;;;44.05;20.40;;;3.60;82.50;;;;;;4125974;28;20030;-81
2022/01/16 04:03:54;;;;;;;43.25;20.70;;;3.50;82.50;;;;;;4125871;28;20049;-81
2022/01/16 04:05:55;;;;;;;50.05;20.60;;;3.60;82.60;;;;;;4125232;28;20054;-81
2022/01/16 04:07:58;;;;;;;42.55;18.95;;;3.50;82.50;;;;;;4132073;28;20068;-82
2022/01/16 04:09:58;;;;;;;46.05;19.25;;;3.50;82.50;;;;;;4129921;28;20563;-81
2022/01/16 04:11:59;;;;;;;45.00;19.40;;;3.50;82.50;;;;;;4110288;28;20068;-81
2022/01/16 04:14:23;;;;;;;51.25;19.60;;;3.50;82.50;;;;;;4099930;28;20027;-81
2022/01/16 04:16:23;;;;;;;44.13;18.58;;;3.50;82.40;;;;;;4125446;28;20034;-80
2022/01/16 04:18:23;;;;;;;41.60;18.00;;;3.40;82.30;;;;;;4132732;28;20026;-80
2022/01/16 04:20:24;;;;;;;42.67;17.48;;;3.50;82.40;;;;;;4115904;28;20034;-80
2022/01/16 04:22:25;;;;;;;46.97;18.38;;;3.50;82.30;;;;;;4111280;28;20030;-81
2022/01/16 04:24:25;;;;;;;46.80;19.60;;;3.50;82.30;;;;;;4129323;28;20049;-81
2022/01/16 04:26:26;;;;;;;45.33;18.67;;;3.50;82.30;;;;;;4123928;28;20078;-81
2022/01/16 04:28:26;;;;;;;48.00;19.35;;;3.50;82.20;;;;;;4108294;28;20031;-81
2022/01/16 04:30:27;;;;;;;43.80;18.15;;;3.50;82.20;;;;;;4095302;28;20102;-81
2022/01/16 04:32:28;;;;;;;45.38;19.58;;;3.50;82.10;;;;;;4123710;28;20022;-81
2022/01/16 04:34:28;;;;;;;42.10;19.20;;;3.50;82.00;;;;;;4106083;28;20165;-80
2022/01/16 04:36:29;;;;;;;43.75;18.60;;;3.50;81.90;;;;;;4092971;28;20082;-81
2022/01/16 04:38:29;;;;;;;46.60;20.08;;;3.60;81.90;;;;;;4107925;28;20030;-80
2022/01/16 04:40:40;;;;;;;42.25;17.80;;;3.50;81.80;;;;;;4126987;28;20044;-81
2022/01/16 04:45:14;;;;;;;44.67;17.17;;;3.60;81.70;;;;;;4104422;28;20046;-81
2022/01/16 04:47:14;;;;;;;40.58;18.27;;;3.50;81.60;;;;;;4129968;28;20033;-81
2022/01/16 04:49:15;;;;;;;43.58;17.55;;;3.60;81.60;;;;;;4093865;28;20028;-81
2022/01/16 04:51:15;;;;;;;42.00;16.70;;;3.60;81.40;;;;;;4128567;28;20034;-81
2022/01/16 04:53:16;;;;;;;35.30;15.38;;;3.60;81.30;;;;;;4112222;28;20031;-81
2022/01/16 04:55:17;;;;;;;43.92;18.08;;;3.60;81.20;;;;;;4128855;28;20575;-81
2022/01/16 04:57:17;;;;;;;38.42;16.80;;;3.60;81.10;;;;;;4112494;28;20113;-81
2022/01/16 04:59:18;;;;;;;39.33;16.42;;;3.60;81.00;;;;;;4126573;28;20022;-81
2022/01/16 05:01:19;;;;;;;37.63;16.17;;;3.60;80.90;;;;;;4113151;28;20373;-80
2022/01/16 05:03:19;;;;;;;38.50;15.95;;;3.60;80.80;;;;;;4127855;28;20379;-80
2022/01/16 05:05:20;;;;;;;41.13;16.73;;;3.60;80.70;;;;;;4128582;28;20028;-80
2022/01/16 05:07:20;;;;;;;40.80;16.30;;;3.60;80.60;;;;;;4128672;28;20035;-80
2022/01/16 05:09:21;;;;;;;35.58;17.02;;;3.50;80.40;;;;;;4111756;28;20027;-81
2022/01/16 05:11:25;;;;;;;37.13;14.68;;;3.50;80.40;;;;;;4131409;28;20362;-81
2022/01/16 05:16:35;;;;;;;36.38;15.45;;;3.60;81.20;;;;;;4124501;28;20325;-81
2022/01/16 05:18:12;;;;;;;35.33;15.65;;;3.60;80.20;;;;;;4126027;28;20027;-81
2022/01/16 05:20:12;;;;;;;33.42;13.95;;;3.60;80.10;;;;;;4129666;28;20034;-81
2022/01/16 05:22:13;;;;;;;33.58;14.30;;;3.60;80.10;;;;;;4126616;28;20030;-81
2022/01/16 05:24:14;;;;;;;31.88;15.20;;;3.60;80.10;;;;;;4126954;28;20038;-80
2022/01/16 05:26:17;;;;;;;36.75;15.23;;;3.60;80.10;;;;;;4128258;28;20026;-81
2022/01/16 05:28:18;;;;;;;31.02;13.55;;;3.50;79.80;;;;;;4128025;28;20091;-81
2022/01/16 05:30:18;;;;;;;30.75;13.73;;;3.60;79.80;;;;;;4124247;28;20088;-80
2022/01/16 05:32:19;;;;;;;31.35;13.23;;;3.60;79.80;;;;;;4129034;28;20400;-80
2022/01/16 05:34:21;;;;;;;33.25;13.90;;;3.60;79.70;;;;;;4120357;28;20642;-80
2022/01/16 05:36:22;;;;;;;33.15;14.63;;;3.60;79.70;;;;;;4113930;28;20170;-80
2022/01/16 05:38:23;;;;;;;37.13;15.20;;;3.60;79.60;;;;;;4126292;28;20026;-80
2022/01/16 05:40:23;;;;;;;37.20;15.15;;;3.60;79.60;;;;;;4126446;28;20578;-80
2022/01/16 05:42:24;;;;;;;33.83;14.75;;;3.60;79.40;;;;;;4097375;28;20034;-81
2022/01/16 05:44:24;;;;;;;40.60;15.48;;;3.60;79.40;;;;;;4129241;28;20447;-81
2022/01/16 05:46:25;;;;;;;38.20;14.73;;;3.60;79.30;;;;;;4128514;28;20029;-80
2022/01/16 05:48:28;;;;;;;41.65;15.95;;;3.60;79.20;;;;;;4114285;28;20425;-81
2022/01/16 05:50:31;;;;;;;37.13;16.40;;;3.60;79.20;;;;;;4127748;28;20365;-81
2022/01/16 05:52:32;;;;;;;41.95;17.10;;;3.60;79.20;;;;;;4092689;28;20035;-80
2022/01/16 05:54:33;;;;;;;42.35;18.27;;;3.60;79.20;;;;;;4126395;28;20379;-80
2022/01/16 05:56:33;;;;;;;39.75;16.67;;;3.60;79.10;;;;;;4117183;28;20050;-81
2022/01/16 05:58:34;;;;;;;43.25;16.05;;;3.60;79.10;;;;;;4128390;28;20033;-80
2022/01/16 06:00:36;;;;;;;41.58;16.27;;;3.60;79.10;;;;;;4124809;28;20023;-81
2022/01/16 06:02:36;;;;;;;39.40;17.05;;;3.60;79.20;;;;;;4097285;28;20027;-81
2022/01/16 06:04:37;;;;;;;42.05;16.55;;;3.60;79.10;;;;;;4128839;28;20093;-81
2022/01/16 06:06:37;;;;;;;47.38;17.90;;;3.70;79.10;;;;;;4092176;28;20034;-80
2022/01/16 06:08:38;;;;;;;41.72;16.52;;;3.70;79.10;;;;;;4101156;28;20027;-80
2022/01/16 06:10:39;;;;;;;49.58;18.40;;;3.60;79.00;;;;;;4111883;28;20039;-81
2022/01/16 06:12:40;;;;;;;48.25;18.50;;;3.70;79.10;;;;;;4110181;28;20031;-81
2022/01/16 06:14:40;;;;;;;47.47;18.23;;;3.70;79.10;;;;;;4118118;28;20378;-81
2022/01/16 06:16:41;;;;;;;50.90;19.17;;;3.70;79.00;;;;;;4130429;28;20064;-81
2022/01/16 06:18:41;;;;;;;51.30;19.08;;;3.70;79.00;;;;;;4113652;28;20457;-81
2022/01/16 06:20:42;;;;;;;54.05;19.83;;;3.70;78.90;;;;;;4129826;28;20065;-80
2022/01/16 06:22:43;;;;;;;48.20;18.45;;;3.70;78.90;;;;;;4132403;28;20383;-81
2022/01/16 06:24:44;;;;;;;47.25;19.13;;;3.70;78.80;;;;;;4104939;28;20556;-81
2022/01/16 06:26:44;;;;;;;53.25;19.15;;;3.70;78.90;;;;;;4111469;28;20019;-81
2022/01/16 06:28:45;;;;;;;60.45;22.20;;;3.70;78.90;;;;;;4095878;28;20517;-81
2022/01/16 06:30:45;;;;;;;67.00;22.63;;;3.70;78.90;;;;;;4114724;28;20084;-79
2022/01/16 06:32:46;;;;;;;59.42;20.73;;;3.70;78.80;;;;;;4114633;28;20039;-80
2022/01/16 06:34:47;;;;;;;66.68;21.23;;;3.70;78.90;;;;;;4119950;28;20046;-80
2022/01/16 06:36:47;;;;;;;58.88;21.65;;;3.70;78.80;;;;;;4096710;28;20027;-80
2022/01/16 06:38:48;;;;;;;57.85;20.65;;;3.70;78.90;;;;;;4129679;28;20531;-82
2022/01/16 06:40:49;;;;;;;64.78;21.02;;;3.70;78.90;;;;;;4090423;28;20031;-82
2022/01/16 06:42:49;;;;;;;59.45;22.33;;;3.70;79.00;;;;;;4114781;28;20026;-80
2022/01/16 06:44:50;;;;;;;59.50;21.83;;;3.70;79.00;;;;;;4130632;28;20095;-82
2022/01/16 06:46:51;;;;;;;56.83;20.92;;;3.60;79.00;;;;;;4113832;28;20481;-82
2022/01/16 06:48:51;;;;;;;59.65;20.88;;;3.70;79.10;;;;;;4135313;28;20038;-82
2022/01/16 06:50:52;;;;;;;56.10;20.85;;;3.60;79.10;;;;;;4110460;28;20031;-82
2022/01/16 06:52:52;;;;;;;60.28;21.60;;;3.60;79.20;;;;;;4099864;28;20090;-81
2022/01/16 06:54:53;;;;;;;68.13;23.00;;;3.60;79.40;;;;;;4113381;28;20472;-81
2022/01/16 06:56:54;;;;;;;64.38;21.38;;;3.60;79.40;;;;;;4128053;28;20034;-81
2022/01/16 06:58:54;;;;;;;54.42;20.83;;;3.50;79.50;;;;;;4124068;28;20037;-81
2022/01/16 07:00:55;;;;;;;66.90;23.23;;;3.60;79.60;;;;;;4111433;28;20105;-82
2022/01/16 07:02:55;;;;;;;63.65;20.77;;;3.60;79.70;;;;;;4112478;28;20080;-81
2022/01/16 07:04:56;;;;;;;60.10;21.65;;;3.50;79.80;;;;;;4109941;28;20537;-81
2022/01/16 07:06:57;;;;;;;66.85;22.73;;;3.50;79.90;;;;;;4128200;28;20381;-80
2022/01/16 07:08:57;;;;;;;63.97;21.88;;;3.50;79.80;;;;;;4131074;28;20044;-81
2022/01/16 07:10:59;;;;;;;58.22;20.48;;;3.50;80.00;;;;;;4134528;28;21661;-81
2022/01/16 07:13:00;;;;;;;65.35;22.25;;;3.40;80.10;;;;;;4097878;28;20245;-82
2022/01/16 07:15:00;;;;;;;57.47;20.98;;;3.50;80.30;;;;;;4109187;28;20035;-81
2022/01/16 07:17:01;;;;;;;63.75;21.25;;;3.50;80.30;;;;;;4110412;28;20038;-81
2022/01/16 07:19:01;;;;;;;59.35;20.30;;;3.40;80.40;;;;;;4117242;28;20030;-81
2022/01/16 07:21:02;;;;;;;59.47;20.92;;;3.40;80.50;;;;;;4096212;28;20062;-81
2022/01/16 07:23:03;;;;;;;61.58;21.33;;;3.40;80.60;;;;;;4129645;28;20039;-81
2022/01/16 07:25:04;;;;;;;57.70;20.38;;;3.40;80.60;;;;;;4128977;28;20046;-80
2022/01/16 07:27:05;;;;;;;58.28;20.00;;;3.40;80.70;;;;;;4129434;28;20022;-81
2022/01/16 07:29:06;;;;;;;56.72;20.17;;;3.40;80.70;;;;;;4130166;28;20049;-80
2022/01/16 07:31:06;;;;;;;60.72;20.67;;;3.40;80.70;;;;;;4105410;28;20035;-80
2022/01/16 07:33:07;;;;;;;66.40;22.17;;;3.40;80.80;;;;;;4127426;28;20372;-80
2022/01/16 07:35:08;;;;;;;57.83;20.70;;;3.40;80.80;;;;;;4112633;28;20041;-80
2022/01/16 07:37:08;;;;;;;59.85;20.88;;;3.40;80.80;;;;;;4114201;28;20073;-80
2022/01/16 07:39:09;;;;;;;75.80;23.08;;;3.30;80.80;;;;;;4112852;28;20125;-80
2022/01/16 07:41:10;;;;;;;70.93;22.73;;;3.30;81.00;;;;;;4123764;28;20138;-80
2022/01/16 07:43:12;;;;;;;67.03;21.70;;;3.30;81.10;;;;;;4106677;28;20022;-80
2022/01/16 07:45:13;;;;;;;60.70;20.17;;;3.30;81.10;;;;;;4127631;28;20346;-80
2022/01/16 07:47:14;;;;;;;62.95;21.90;;;3.30;81.30;;;;;;4097773;28;20062;-80
2022/01/16 07:49:14;;;;;;;63.42;21.33;;;3.30;81.20;;;;;;4132712;28;20030;-80
2022/01/16 07:51:15;;;;;;;59.15;20.13;;;3.30;81.30;;;;;;4112410;28;20035;-80
2022/01/16 07:53:16;;;;;;;71.03;21.80;;;3.30;81.40;;;;;;4110550;28;20042;-80
2022/01/16 07:55:17;;;;;;;64.97;21.08;;;3.30;81.50;;;;;;4110251;28;20031;-80
2022/01/16 07:57:18;;;;;;;57.00;19.83;;;3.30;81.60;;;;;;4094413;28;20477;-80
2022/01/16 07:59:18;;;;;;;60.92;20.23;;;3.30;82.30;;;;;;4123443;28;20030;-80
2022/01/16 08:01:19;;;;;;;54.13;17.98;;;3.20;81.50;;;;;;4112192;28;20042;-80
2022/01/16 08:03:19;;;;;;;57.63;19.30;;;3.30;81.70;;;;;;4109502;28;20508;-80
2022/01/16 08:05:20;;;;;;;60.83;19.77;;;3.30;81.80;;;;;;4121622;28;20050;-80
2022/01/16 08:07:21;;;;;;;58.88;17.92;;;3.30;82.00;;;;;;4092374;28;20060;-80
2022/01/16 08:09:21;;;;;;;46.15;17.25;;;3.30;82.00;;;;;;4091359;28;20019;-80
2022/01/16 08:11:22;;;;;;;50.60;17.45;;;3.30;82.10;;;;;;4100456;28;20645;-80
2022/01/16 08:13:23;;;;;;;69.85;17.15;;;3.30;82.20;;;;;;4094992;28;20085;-81
2022/01/16 08:15:24;;;;;;;43.13;15.88;;;3.20;82.20;;;;;;4125604;28;20057;-80
2022/01/16 08:17:25;;;;;;;44.58;16.45;;;3.30;82.40;;;;;;4109961;28;20034;-80
2022/01/16 08:19:26;;;;;;;49.72;15.30;;;3.30;82.40;;;;;;4108787;28;20089;-80
2022/01/16 08:21:26;;;;;;;44.25;15.93;;;3.40;82.50;;;;;;4108550;28;20412;-80
2022/01/16 08:23:27;;;;;;;47.10;16.15;;;3.30;82.60;;;;;;4109507;28;20072;-80
2022/01/16 08:25:27;;;;;;;42.10;14.77;;;3.30;82.70;;;;;;4092599;28;20304;-80
2022/01/16 08:27:28;;;;;;;46.13;16.42;;;3.30;82.70;;;;;;4124796;28;20393;-80
2022/01/16 08:29:29;;;;;;;46.00;16.08;;;3.30;82.70;;;;;;4119277;28;20143;-80
2022/01/16 08:31:29;;;;;;;47.40;16.17;;;3.30;82.70;;;;;;4097301;28;20034;-80
2022/01/16 08:33:30;;;;;;;50.38;15.52;;;3.30;82.80;;;;;;4120787;28;20381;-80
2022/01/16 08:35:30;;;;;;;46.70;15.60;;;3.30;82.80;;;;;;4103351;28;20031;-81
2022/01/16 08:37:31;;;;;;;42.63;15.32;;;3.30;82.80;;;;;;4106098;28;20396;-81
2022/01/16 08:39:32;;;;;;;54.28;15.98;;;3.40;82.80;;;;;;4104974;28;20030;-80
2022/01/16 08:41:32;;;;;;;50.28;16.75;;;3.40;82.80;;;;;;4121359;28;20034;-80
2022/01/16 08:43:33;;;;;;;49.60;15.93;;;3.40;82.80;;;;;;4108575;28;20038;-80
2022/01/16 08:45:34;;;;;;;51.58;17.42;;;3.40;82.80;;;;;;4108681;28;20046;-80
2022/01/16 08:47:34;;;;;;;53.70;17.17;;;3.40;82.90;;;;;;4107276;28;22175;-80
2022/01/16 08:49:35;;;;;;;53.13;16.40;;;3.40;82.80;;;;;;4091968;28;20097;-81
2022/01/16 08:51:36;;;;;;;51.72;16.20;;;3.40;82.90;;;;;;4125225;28;20389;-80
2022/01/16 08:53:36;;;;;;;52.30;16.77;;;3.40;83.00;;;;;;4109587;28;20535;-81
2022/01/16 08:55:37;;;;;;;50.72;16.23;;;3.40;83.00;;;;;;4094089;28;20031;-80
2022/01/16 08:57:38;;;;;;;58.90;18.80;;;3.40;83.00;;;;;;4125413;28;20027;-80
2022/01/16 08:59:39;;;;;;;60.25;17.77;;;3.40;83.00;;;;;;4071303;29;20027;-80
2022/01/16 09:01:39;;;;;;;59.22;18.80;;;3.40;82.90;;;;;;4102694;28;20449;-81
2022/01/16 09:03:40;;;;;;;59.80;18.95;;;3.40;83.00;;;;;;4104844;28;20118;-81
2022/01/16 09:05:41;;;;;;;56.92;18.02;;;3.40;83.00;;;;;;4123377;28;20050;-81
2022/01/16 09:07:41;;;;;;;60.13;19.20;;;3.40;83.00;;;;;;4124682;28;20445;-81
2022/01/16 09:09:42;;;;;;;54.38;18.88;;;3.40;83.10;;;;;;4108079;28;20027;-81
2022/01/16 09:11:43;;;;;;;55.35;17.55;;;3.50;83.20;;;;;;4110110;28;20058;-80
2022/01/16 09:13:44;;;;;;;54.95;17.35;;;3.50;83.20;;;;;;4112695;28;20105;-81
2022/01/16 09:15:47;;;;;;;55.95;17.60;;;3.50;83.20;;;;;;4108269;28;20031;-81
2022/01/16 09:17:48;;;;;;;59.45;19.42;;;3.50;83.20;;;;;;4115099;28;20587;-81
2022/01/16 09:19:48;;;;;;;64.72;20.20;;;3.50;83.30;;;;;;4109083;28;20030;-81
2022/01/16 09:21:49;;;;;;;63.92;19.80;;;3.50;83.40;;;;;;4119031;28;20049;-81
2022/01/16 09:23:50;;;;;;;72.03;21.38;;;3.50;83.50;;;;;;4082595;28;20058;-81
2022/01/16 09:25:51;;;;;;;67.82;19.60;;;3.50;83.50;;;;;;4087439;28;20039;-81
2022/01/16 09:27:52;;;;;;;64.38;21.45;;;3.60;83.50;;;;;;4119750;28;20034;-81
2022/01/16 09:29:52;;;;;;;62.42;20.50;;;3.60;83.50;;;;;;4087214;28;20035;-81
2022/01/16 09:31:53;;;;;;;71.28;22.83;;;3.60;83.50;;;;;;4088301;28;20047;-81
2022/01/16 09:33:54;;;;;;;71.00;24.13;;;3.50;83.50;;;;;;4104180;28;20043;-81
2022/01/16 09:35:54;;;;;;;66.80;22.85;;;3.60;83.50;;;;;;4121415;28;20495;-81
2022/01/16 09:37:58;;;;;;;76.32;22.55;;;3.60;83.50;;;;;;4126260;28;20026;-81
2022/01/16 09:39:59;;;;;;;79.22;23.83;;;3.60;83.60;;;;;;4124492;28;20550;-81
2022/01/16 09:42:01;;;;;;;85.32;25.10;;;3.60;83.50;;;;;;4129267;28;20069;-81
2022/01/16 09:44:02;;;;;;;73.35;24.45;;;3.70;83.60;;;;;;4108797;28;20095;-81
2022/01/16 09:46:03;;;;;;;70.63;23.63;;;3.70;83.80;;;;;;4110316;28;20474;-81
2022/01/16 09:48:04;;;;;;;71.68;25.35;;;3.70;83.80;;;;;;4128034;28;20037;-81
2022/01/16 09:50:06;;;;;;;79.13;26.42;;;3.70;83.80;;;;;;4132729;28;20035;-81
2022/01/16 09:52:07;;;;;;;83.22;26.85;;;3.70;83.80;;;;;;4130085;28;20030;-81
2022/01/16 09:54:08;;;;;;;83.78;26.95;;;3.70;84.60;;;;;;4127215;28;20041;-81
2022/01/16 09:56:09;;;;;;;87.68;25.88;;;3.70;83.80;;;;;;4127648;28;20034;-81
2022/01/16 09:58:10;;;;;;;84.57;26.55;;;3.80;83.90;;;;;;4137668;28;20073;-81
2022/01/16 10:00:13;;;;;;;86.28;28.77;;;3.80;83.90;;;;;;4113806;28;20030;-81
2022/01/16 10:02:13;;;;;;;84.63;27.38;;;3.80;83.90;;;;;;4129685;28;20041;-81
2022/01/16 10:04:35;;;;;;;87.68;28.02;;;3.80;83.90;;;;;;4114738;28;20042;-80
2022/01/16 10:06:37;;;;;;;80.55;27.27;;;3.80;83.90;;;;;;4114923;28;20019;-81
2022/01/16 10:08:39;;;;;;;92.20;35.15;;;3.90;84.00;;;;;;4113030;28;20025;-81
2022/01/16 10:10:41;;;;;;;78.35;27.98;;;3.90;83.90;;;;;;4101191;28;20054;-81
2022/01/16 10:12:49;;;;;;;79.65;25.88;;;3.90;83.90;;;;;;4110326;28;20695;-81
2022/01/16 10:14:49;;;;;;;75.28;24.17;;;3.90;84.00;;;;;;4126444;28;20475;-81
2022/01/16 10:16:50;;;;;;;66.53;23.08;;;3.90;84.00;;;;;;4108041;28;20093;-80
2022/01/16 10:18:51;;;;;;;80.85;25.17;;;3.90;84.00;;;;;;4115297;28;20404;-81
2022/01/16 10:20:51;;;;;;;75.57;24.77;;;3.90;84.00;;;;;;4098567;28;20039;-81
2022/01/16 10:22:53;;;;;;;77.75;24.30;;;3.90;84.10;;;;;;4116779;28;20105;-81
2022/01/16 10:24:54;;;;;;;80.05;25.15;;;4.00;84.10;;;;;;4128868;28;20439;-81
2022/01/16 10:27:11;;;;;;;80.38;24.75;;;4.00;84.10;;;;;;4113439;28;20031;-81
2022/01/16 10:29:16;;;;;;;87.18;27.05;;;4.00;84.20;;;;;;4129309;28;20041;-81
2022/01/16 10:31:31;;;;;;;78.80;25.92;;;4.10;84.20;;;;;;4130600;28;20084;-81
2022/01/16 10:33:33;;;;;;;78.30;25.33;;;4.00;84.20;;;;;;4116090;28;20062;-80
2022/01/16 10:35:36;;;;;;;89.72;27.33;;;4.10;84.20;;;;;;4095810;28;20083;-81
2022/01/16 10:37:38;;;;;;;95.90;27.20;;;4.10;84.30;;;;;;4113701;28;20455;-81
2022/01/16 10:39:57;;;;;;;88.63;27.00;;;4.10;84.30;;;;;;4126422;28;20400;-81
2022/01/16 10:42:12;;;;;;;95.82;28.27;;;4.20;84.40;;;;;;4133405;28;20018;-81
2022/01/16 10:44:25;;;;;;;86.40;26.77;;;4.20;84.60;;;;;;4127521;28;20085;-81
2022/01/16 10:46:26;;;;;;;90.70;27.75;;;4.30;84.80;;;;;;4114591;28;20520;-81
2022/01/16 10:48:27;;;;;;;92.45;27.77;;;4.30;84.90;;;;;;4131921;28;20038;-81
2022/01/16 10:50:31;;;;;;;93.65;28.20;;;4.40;85.10;;;;;;4130388;28;20395;-81
2022/01/16 10:52:32;;;;;;;92.65;27.80;;;4.50;85.20;;;;;;4104392;28;20159;-81
2022/01/16 10:54:34;;;;;;;87.25;28.73;;;4.50;85.30;;;;;;4103013;28;20058;-80
2022/01/16 10:56:35;;;;;;;95.65;27.75;;;4.60;85.30;;;;;;4107688;28;20042;-82
2022/01/16 10:58:36;;;;;;;89.30;27.88;;;4.60;85.30;;;;;;4113179;28;20038;-81
2022/01/16 11:00:37;;;;;;;92.72;28.38;;;4.70;85.30;;;;;;4130616;28;20420;-81
2022/01/16 11:02:38;;;;;;;90.78;27.75;;;4.80;85.10;;;;;;4109578;28;20564;-80
2022/01/16 11:04:38;;;;;;;89.93;26.80;;;4.80;85.00;;;;;;4109854;28;20051;-81
2022/01/16 11:06:39;;;;;;;78.85;26.70;;;4.90;85.00;;;;;;4126908;28;20030;-81
2022/01/16 11:08:48;;;;;;;77.63;26.30;;;4.90;84.90;;;;;;4128216;28;20056;-81